sensor_id;sensor_type;location;lat;lon;timestamp;pressure;altitude;pressure_sealevel;temperature;humidity
48015;BME280;33780;51.034;7.120;2023-07-28T00:00:30;99798.44;;;18.93;84.67
48015;BME280;33780;51.034;7.120;2023-07-28T00:02:56;99804.06;;;18.92;84.60
48015;BME280;33780;51.034;7.120;2023-07-28T00:05:21;99799.47;;;18.92;84.42
48015;BME280;33780;51.034;7.120;2023-07-28T00:07:46;99797.59;;;18.93;84.38
48015;BME280;33780;51.034;7.120;2023-07-28T00:10:11;99802.19;;;18.92;84.60
48015;BME280;33780;51.034;7.120;2023-07-28T00:12:37;99795.94;;;18.92;84.57
48015;BME280;33780;51.034;7.120;2023-07-28T00:15:02;99802.19;;;18.92;84.40
48015;BME280;33780;51.034;7.120;2023-07-28T00:17:27;99804.91;;;18.92;84.46
48015;BME280;33780;51.034;7.120;2023-07-28T00:19:53;99812.84;;;18.94;84.50
48015;BME280;33780;51.034;7.120;2023-07-28T00:22:18;99812.00;;;18.93;84.70
48015;BME280;33780;51.034;7.120;2023-07-28T00:24:43;99800.31;;;18.93;84.95
48015;BME280;33780;51.034;7.120;2023-07-28T00:27:09;99803.84;;;18.93;84.55
48015;BME280;33780;51.034;7.120;2023-07-28T00:29:34;99801.97;;;18.94;84.79
48015;BME280;33780;51.034;7.120;2023-07-28T00:31:59;99800.31;;;18.93;84.66
48015;BME280;33780;51.034;7.120;2023-07-28T00:34:24;99796.78;;;18.92;84.77
48015;BME280;33780;51.034;7.120;2023-07-28T00:36:50;99794.91;;;18.93;84.49
48015;BME280;33780;51.034;7.120;2023-07-28T00:39:15;99793.00;;;18.93;84.73
48015;BME280;33780;51.034;7.120;2023-07-28T00:41:40;99794.91;;;18.93;84.77
48015;BME280;33780;51.034;7.120;2023-07-28T00:44:05;99785.94;;;18.92;84.75
48015;BME280;33780;51.034;7.120;2023-07-28T00:46:31;99794.91;;;18.93;84.46
48015;BME280;33780;51.034;7.120;2023-07-28T00:48:56;99797.59;;;18.93;84.73
48015;BME280;33780;51.034;7.120;2023-07-28T00:51:22;99790.50;;;18.92;84.79
48015;BME280;33780;51.034;7.120;2023-07-28T00:53:47;99787.81;;;18.92;84.85
48015;BME280;33780;51.034;7.120;2023-07-28T00:56:13;99792.41;;;18.91;84.97
48015;BME280;33780;51.034;7.120;2023-07-28T00:58:39;99791.56;;;18.91;84.85
48015;BME280;33780;51.034;7.120;2023-07-28T01:01:04;99794.28;;;18.91;84.99
48015;BME280;33780;51.034;7.120;2023-07-28T01:03:30;99796.16;;;18.90;84.59
48015;BME280;33780;51.034;7.120;2023-07-28T01:09:09;99792.41;;;18.91;84.86
48015;BME280;33780;51.034;7.120;2023-07-28T01:11:33;99785.31;;;18.90;85.17
48015;BME280;33780;51.034;7.120;2023-07-28T01:13:58;99791.56;;;18.91;84.99
48015;BME280;33780;51.034;7.120;2023-07-28T01:16:23;99790.72;;;18.90;84.84
48015;BME280;33780;51.034;7.120;2023-07-28T01:18:49;99786.13;;;18.91;84.98
48015;BME280;33780;51.034;7.120;2023-07-28T01:21:22;99784.25;;;18.91;85.08
48015;BME280;33780;51.034;7.120;2023-07-28T01:24:06;99788.63;;;18.92;85.05
48015;BME280;33780;51.034;7.120;2023-07-28T01:26:38;99792.41;;;18.91;84.87
48015;BME280;33780;51.034;7.120;2023-07-28T01:29:05;99785.09;;;18.92;85.08
48015;BME280;33780;51.034;7.120;2023-07-28T01:31:30;99783.22;;;18.92;84.98
48015;BME280;33780;51.034;7.120;2023-07-28T01:33:56;99791.13;;;18.94;84.88
48015;BME280;33780;51.034;7.120;2023-07-28T01:36:21;99779.47;;;18.93;85.01
48015;BME280;33780;51.034;7.120;2023-07-28T01:38:47;99778.63;;;18.93;85.00
48015;BME280;33780;51.034;7.120;2023-07-28T01:41:12;99782.38;;;18.92;85.19
48015;BME280;33780;51.034;7.120;2023-07-28T01:43:37;99786.13;;;18.91;85.19
48015;BME280;33780;51.034;7.120;2023-07-28T01:46:03;99778.00;;;18.91;85.13
48015;BME280;33780;51.034;7.120;2023-07-28T01:48:28;99779.66;;;18.92;85.09
48015;BME280;33780;51.034;7.120;2023-07-28T01:50:54;99781.53;;;18.91;85.08
48015;BME280;33780;51.034;7.120;2023-07-28T01:53:19;99783.44;;;18.91;85.14
48015;BME280;33780;51.034;7.120;2023-07-28T01:55:45;99777.38;;;18.89;85.18
48015;BME280;33780;51.034;7.120;2023-07-28T01:58:10;99777.38;;;18.89;85.29
48015;BME280;33780;51.034;7.120;2023-07-28T02:00:36;99780.09;;;18.89;85.17
48015;BME280;33780;51.034;7.120;2023-07-28T02:03:01;99771.13;;;18.88;85.24
48015;BME280;33780;51.034;7.120;2023-07-28T02:05:28;99773.00;;;18.88;85.29
48015;BME280;33780;51.034;7.120;2023-07-28T02:07:54;99764.88;;;18.88;85.23
48015;BME280;33780;51.034;7.120;2023-07-28T02:10:19;99772.16;;;18.87;85.32
48015;BME280;33780;51.034;7.120;2023-07-28T02:12:45;99766.97;;;18.86;84.91
48015;BME280;33780;51.034;7.120;2023-07-28T02:15:11;99768.84;;;18.85;85.44
48015;BME280;33780;51.034;7.120;2023-07-28T02:17:36;99772.56;;;18.84;85.36
48015;BME280;33780;51.034;7.120;2023-07-28T02:20:02;99769.00;;;18.84;85.46
48015;BME280;33780;51.034;7.120;2023-07-28T02:22:28;99775.28;;;18.84;85.67
48015;BME280;33780;51.034;7.120;2023-07-28T02:24:54;99779.84;;;18.84;85.55
48015;BME280;33780;51.034;7.120;2023-07-28T02:27:19;99771.72;;;18.84;85.45
48015;BME280;33780;51.034;7.120;2023-07-28T02:29:44;99775.47;;;18.83;85.69
48015;BME280;33780;51.034;7.120;2023-07-28T02:32:10;99779.25;;;18.82;85.77
48015;BME280;33780;51.034;7.120;2023-07-28T02:34:36;99775.47;;;18.83;85.77
48015;BME280;33780;51.034;7.120;2023-07-28T02:37:01;99779.03;;;18.83;85.79
48015;BME280;33780;51.034;7.120;2023-07-28T02:39:26;99780.06;;;18.82;85.89
48015;BME280;33780;51.034;7.120;2023-07-28T02:41:52;99781.75;;;18.83;85.80
48015;BME280;33780;51.034;7.120;2023-07-28T02:44:17;99776.31;;;18.83;85.69
48015;BME280;33780;51.034;7.120;2023-07-28T02:46:42;99785.28;;;18.84;86.06
48015;BME280;33780;51.034;7.120;2023-07-28T02:49:07;99780.91;;;18.83;86.02
48015;BME280;33780;51.034;7.120;2023-07-28T02:51:33;99778.19;;;18.83;86.30
48015;BME280;33780;51.034;7.120;2023-07-28T02:53:59;99780.06;;;18.82;86.29
48015;BME280;33780;51.034;7.120;2023-07-28T02:56:24;99779.03;;;18.83;86.14
48015;BME280;33780;51.034;7.120;2023-07-28T02:58:50;99784.44;;;18.83;86.33
48015;BME280;33780;51.034;7.120;2023-07-28T03:01:15;99789.66;;;18.85;86.09
48015;BME280;33780;51.034;7.120;2023-07-28T03:03:40;99790.53;;;18.85;86.38
48015;BME280;33780;51.034;7.120;2023-07-28T03:06:06;99796.97;;;18.84;86.42
48015;BME280;33780;51.034;7.120;2023-07-28T03:08:31;99795.28;;;18.83;86.58
48015;BME280;33780;51.034;7.120;2023-07-28T03:10:57;99787.16;;;18.83;86.63
48015;BME280;33780;51.034;7.120;2023-07-28T03:13:23;99791.75;;;18.83;86.47
48015;BME280;33780;51.034;7.120;2023-07-28T03:15:48;99790.09;;;18.82;86.42
48015;BME280;33780;51.034;7.120;2023-07-28T03:18:13;99783.00;;;18.81;86.39
48015;BME280;33780;51.034;7.120;2023-07-28T03:20:38;99790.09;;;18.82;86.63
48015;BME280;33780;51.034;7.120;2023-07-28T03:23:04;99789.03;;;18.83;86.72
48015;BME280;33780;51.034;7.120;2023-07-28T03:25:29;99792.59;;;18.83;86.48
48015;BME280;33780;51.034;7.120;2023-07-28T03:27:54;99782.56;;;18.84;86.71
48015;BME280;33780;51.034;7.120;2023-07-28T03:30:19;99790.72;;;18.84;86.85
48015;BME280;33780;51.034;7.120;2023-07-28T03:32:45;99793.41;;;18.84;86.67
48015;BME280;33780;51.034;7.120;2023-07-28T03:35:10;99789.03;;;18.83;86.53
48015;BME280;33780;51.034;7.120;2023-07-28T03:37:35;99786.31;;;18.83;86.69
48015;BME280;33780;51.034;7.120;2023-07-28T03:40:01;99794.47;;;18.83;86.66
48015;BME280;33780;51.034;7.120;2023-07-28T03:42:26;99804.25;;;18.84;86.72
48015;BME280;33780;51.034;7.120;2023-07-28T03:44:51;99794.66;;;18.81;86.70
48015;BME280;33780;51.034;7.120;2023-07-28T03:47:17;99793.63;;;18.82;86.98
48015;BME280;33780;51.034;7.120;2023-07-28T03:49:42;99800.09;;;18.81;86.86
48015;BME280;33780;51.034;7.120;2023-07-28T03:52:07;99806.34;;;18.82;86.94
48015;BME280;33780;51.034;7.120;2023-07-28T03:54:32;99808.22;;;18.81;86.88
48015;BME280;33780;51.034;7.120;2023-07-28T03:56:58;99801.13;;;18.80;86.75
48015;BME280;33780;51.034;7.120;2023-07-28T03:59:23;99804.69;;;18.81;86.93
48015;BME280;33780;51.034;7.120;2023-07-28T04:01:48;99802.81;;;18.81;86.85
48015;BME280;33780;51.034;7.120;2023-07-28T04:04:14;99785.69;;;18.81;86.89
48015;BME280;33780;51.034;7.120;2023-07-28T04:06:43;99794.66;;;18.81;86.90
48015;BME280;33780;51.034;7.120;2023-07-28T04:09:08;99790.09;;;18.82;87.23
48015;BME280;33780;51.034;7.120;2023-07-28T04:11:34;99788.22;;;18.82;87.16
48015;BME280;33780;51.034;7.120;2023-07-28T04:13:59;99792.78;;;18.82;87.11
48015;BME280;33780;51.034;7.120;2023-07-28T04:16:25;99805.31;;;18.83;87.24
48015;BME280;33780;51.034;7.120;2023-07-28T04:18:50;99800.94;;;18.82;87.35
48015;BME280;33780;51.034;7.120;2023-07-28T04:21:15;99791.75;;;18.83;87.08
48015;BME280;33780;51.034;7.120;2023-07-28T04:23:40;99805.94;;;18.85;87.18
48015;BME280;33780;51.034;7.120;2023-07-28T04:26:06;99799.66;;;18.84;87.32
48015;BME280;33780;51.034;7.120;2023-07-28T04:28:31;99796.97;;;18.84;87.22
48015;BME280;33780;51.034;7.120;2023-07-28T04:30:56;99809.50;;;18.85;87.48
48015;BME280;33780;51.034;7.120;2023-07-28T04:33:22;99810.34;;;18.86;87.39
48015;BME280;33780;51.034;7.120;2023-07-28T04:35:47;99810.34;;;18.86;87.45
48015;BME280;33780;51.034;7.120;2023-07-28T04:38:12;99816.59;;;18.86;87.55
48015;BME280;33780;51.034;7.120;2023-07-28T04:40:37;99813.88;;;18.86;87.39
48015;BME280;33780;51.034;7.120;2023-07-28T04:43:03;99818.25;;;18.87;87.52
48015;BME280;33780;51.034;7.120;2023-07-28T04:45:28;99816.59;;;18.86;87.75
48015;BME280;33780;51.034;7.120;2023-07-28T04:47:53;99813.88;;;18.86;87.44
48015;BME280;33780;51.034;7.120;2023-07-28T04:50:18;99815.53;;;18.87;87.54
48015;BME280;33780;51.034;7.120;2023-07-28T04:52:44;99814.72;;;18.87;87.84
48015;BME280;33780;51.034;7.120;2023-07-28T04:55:09;99820.13;;;18.87;87.73
48015;BME280;33780;51.034;7.120;2023-07-28T04:57:34;99827.44;;;18.86;87.84
48015;BME280;33780;51.034;7.120;2023-07-28T04:59:59;99823.69;;;18.87;88.07
48015;BME280;33780;51.034;7.120;2023-07-28T05:02:25;99823.47;;;18.89;87.91
48015;BME280;33780;51.034;7.120;2023-07-28T05:04:50;99834.09;;;18.90;88.13
48015;BME280;33780;51.034;7.120;2023-07-28T05:07:15;99825.97;;;18.90;87.92
48015;BME280;33780;51.034;7.120;2023-07-28T05:09:40;99828.47;;;18.92;88.00
48015;BME280;33780;51.034;7.120;2023-07-28T05:12:06;99832.03;;;18.92;87.90
48015;BME280;33780;51.034;7.120;2023-07-28T05:14:31;99830.97;;;18.93;87.90
48015;BME280;33780;51.034;7.120;2023-07-28T05:16:57;99836.19;;;18.95;88.24
48015;BME280;33780;51.034;7.120;2023-07-28T05:19:22;99843.50;;;18.94;88.03
48015;BME280;33780;51.034;7.120;2023-07-28T05:21:47;99839.72;;;18.95;88.33
48015;BME280;33780;51.034;7.120;2023-07-28T05:24:12;99843.28;;;18.96;88.13
48015;BME280;33780;51.034;7.120;2023-07-28T05:26:38;99841.41;;;18.96;88.02
48015;BME280;33780;51.034;7.120;2023-07-28T05:29:03;99844.72;;;18.98;88.13
48015;BME280;33780;51.034;7.120;2023-07-28T05:31:28;99839.09;;;19.00;88.11
48015;BME280;33780;51.034;7.120;2023-07-28T05:33:54;99843.47;;;19.01;88.21
48015;BME280;33780;51.034;7.120;2023-07-28T05:36:19;99851.63;;;19.01;88.22
48015;BME280;33780;51.034;7.120;2023-07-28T05:38:44;99856.00;;;19.02;88.21
48015;BME280;33780;51.034;7.120;2023-07-28T05:41:09;99853.28;;;19.02;88.49
48015;BME280;33780;51.034;7.120;2023-07-28T05:43:35;99852.44;;;19.01;88.39
48015;BME280;33780;51.034;7.120;2023-07-28T05:46:00;99854.97;;;19.03;88.57
48015;BME280;33780;51.034;7.120;2023-07-28T05:48:26;99847.69;;;19.04;88.41
48015;BME280;33780;51.034;7.120;2023-07-28T05:50:51;99853.09;;;19.04;88.22
48015;BME280;33780;51.034;7.120;2023-07-28T05:53:19;99853.72;;;19.06;88.28
48015;BME280;33780;51.034;7.120;2023-07-28T05:55:46;99856.44;;;19.06;88.68
48015;BME280;33780;51.034;7.120;2023-07-28T05:58:11;99858.94;;;19.07;88.43
48015;BME280;33780;51.034;7.120;2023-07-28T06:00:38;99859.78;;;19.08;88.66
48015;BME280;33780;51.034;7.120;2023-07-28T06:03:04;99866.88;;;19.09;88.50
48015;BME280;33780;51.034;7.120;2023-07-28T06:05:29;99866.03;;;19.08;88.71
48015;BME280;33780;51.034;7.120;2023-07-28T06:07:54;99870.41;;;19.09;88.74
48015;BME280;33780;51.034;7.120;2023-07-28T06:10:20;99865.81;;;19.10;89.15
48015;BME280;33780;51.034;7.120;2023-07-28T06:12:45;99868.53;;;19.10;88.81
48015;BME280;33780;51.034;7.120;2023-07-28T06:15:10;99863.13;;;19.10;88.71
48015;BME280;33780;51.034;7.120;2023-07-28T06:17:35;99877.31;;;19.12;89.05
48015;BME280;33780;51.034;7.120;2023-07-28T06:20:01;99870.81;;;19.13;88.77
48015;BME280;33780;51.034;7.120;2023-07-28T06:22:26;99868.94;;;19.13;89.03
48015;BME280;33780;51.034;7.120;2023-07-28T06:24:51;99883.34;;;19.14;89.05
48015;BME280;33780;51.034;7.120;2023-07-28T06:27:17;99883.56;;;19.12;88.97
48015;BME280;33780;51.034;7.120;2023-07-28T06:29:42;99893.16;;;19.15;89.07
48015;BME280;33780;51.034;7.120;2023-07-28T06:32:07;99885.00;;;19.15;89.01
48015;BME280;33780;51.034;7.120;2023-07-28T06:34:33;99886.06;;;19.14;89.68
48015;BME280;33780;51.034;7.120;2023-07-28T06:36:58;99886.06;;;19.14;89.55
48015;BME280;33780;51.034;7.120;2023-07-28T06:39:23;99892.31;;;19.14;89.48
48015;BME280;33780;51.034;7.120;2023-07-28T06:41:50;99891.06;;;19.17;89.47
48015;BME280;33780;51.034;7.120;2023-07-28T06:44:15;99897.31;;;19.17;89.67
48015;BME280;33780;51.034;7.120;2023-07-28T06:46:40;99896.50;;;19.17;89.65
48015;BME280;33780;51.034;7.120;2023-07-28T06:49:05;99904.41;;;19.18;89.58
48015;BME280;33780;51.034;7.120;2023-07-28T06:51:31;99902.53;;;19.19;89.64
48015;BME280;33780;51.034;7.120;2023-07-28T06:53:56;99906.91;;;19.20;89.67
48015;BME280;33780;51.034;7.120;2023-07-28T06:56:21;99908.59;;;19.21;89.73
48015;BME280;33780;51.034;7.120;2023-07-28T06:58:47;99911.28;;;19.21;89.80
48015;BME280;33780;51.034;7.120;2023-07-28T07:01:12;99916.53;;;19.22;89.68
48015;BME280;33780;51.034;7.120;2023-07-28T07:03:37;99914.47;;;19.24;89.83
48015;BME280;33780;51.034;7.120;2023-07-28T07:06:02;99919.69;;;19.26;89.66
48015;BME280;33780;51.034;7.120;2023-07-28T07:08:28;99922.19;;;19.27;89.93
48015;BME280;33780;51.034;7.120;2023-07-28T07:10:53;99920.28;;;19.28;90.05
48015;BME280;33780;51.034;7.120;2023-07-28T07:13:18;99923.00;;;19.28;89.92
48015;BME280;33780;51.034;7.120;2023-07-28T07:15:45;99925.50;;;19.29;90.07
48015;BME280;33780;51.034;7.120;2023-07-28T07:18:10;99934.50;;;19.30;89.93
48015;BME280;33780;51.034;7.120;2023-07-28T07:20:37;99934.06;;;19.33;89.89
48015;BME280;33780;51.034;7.120;2023-07-28T07:23:03;99945.75;;;19.33;90.43
48015;BME280;33780;51.034;7.120;2023-07-28T07:25:28;99937.41;;;19.35;90.29
48015;BME280;33780;51.034;7.120;2023-07-28T07:27:54;99937.63;;;19.33;90.35
48015;BME280;33780;51.034;7.120;2023-07-28T07:30:19;99934.91;;;19.33;90.15
48015;BME280;33780;51.034;7.120;2023-07-28T07:32:44;99937.41;;;19.35;90.28
48015;BME280;33780;51.034;7.120;2023-07-28T07:35:09;99940.75;;;19.37;90.22
48015;BME280;33780;51.034;7.120;2023-07-28T07:37:35;99939.69;;;19.38;90.17
48015;BME280;33780;51.034;7.120;2023-07-28T07:40:00;99939.53;;;19.40;90.36
48015;BME280;33780;51.034;7.120;2023-07-28T07:42:27;99952.88;;;19.41;90.10
48015;BME280;33780;51.034;7.120;2023-07-28T07:44:52;99951.00;;;19.42;90.06
48015;BME280;33780;51.034;7.120;2023-07-28T07:47:17;99948.91;;;19.44;90.14
48015;BME280;33780;51.034;7.120;2023-07-28T07:49:43;99952.25;;;19.46;90.21
48015;BME280;33780;51.034;7.120;2023-07-28T07:52:08;99950.97;;;19.48;90.14
48015;BME280;33780;51.034;7.120;2023-07-28T07:54:37;99952.66;;;19.49;90.06
48015;BME280;33780;51.034;7.120;2023-07-28T07:57:03;99962.47;;;19.50;90.50
48015;BME280;33780;51.034;7.120;2023-07-28T07:59:28;99960.78;;;19.49;90.36
48015;BME280;33780;51.034;7.120;2023-07-28T08:01:56;99956.19;;;19.50;90.23
48015;BME280;33780;51.034;7.120;2023-07-28T08:04:23;99959.75;;;19.50;90.37
48015;BME280;33780;51.034;7.120;2023-07-28T08:06:48;99963.09;;;19.52;90.12
48015;BME280;33780;51.034;7.120;2023-07-28T08:09:14;99966.63;;;19.53;90.08
48015;BME280;33780;51.034;7.120;2023-07-28T08:11:40;99970.19;;;19.53;90.15
48015;BME280;33780;51.034;7.120;2023-07-28T08:14:05;99972.91;;;19.53;90.30
48015;BME280;33780;51.034;7.120;2023-07-28T08:16:30;99970.84;;;19.55;90.24
48015;BME280;33780;51.034;7.120;2023-07-28T08:18:55;99975.22;;;19.56;89.93
48015;BME280;33780;51.034;7.120;2023-07-28T08:21:21;99982.34;;;19.57;90.18
48015;BME280;33780;51.034;7.120;2023-07-28T08:23:47;99982.34;;;19.57;90.24
48015;BME280;33780;51.034;7.120;2023-07-28T08:26:13;99987.56;;;19.59;90.06
48015;BME280;33780;51.034;7.120;2023-07-28T08:28:38;99985.69;;;19.59;90.15
48015;BME280;33780;51.034;7.120;2023-07-28T08:31:04;99995.28;;;19.62;90.31
48015;BME280;33780;51.034;7.120;2023-07-28T08:33:29;99996.75;;;19.65;90.20
48015;BME280;33780;51.034;7.120;2023-07-28T08:35:54;99990.28;;;19.66;90.07
48015;BME280;33780;51.034;7.120;2023-07-28T08:38:22;99992.78;;;19.67;90.17
48015;BME280;33780;51.034;7.120;2023-07-28T08:40:47;99991.53;;;19.70;90.31
48015;BME280;33780;51.034;7.120;2023-07-28T08:43:13;99991.53;;;19.70;90.26
48015;BME280;33780;51.034;7.120;2023-07-28T08:45:38;99990.25;;;19.72;90.26
48015;BME280;33780;51.034;7.120;2023-07-28T08:48:06;99992.59;;;19.75;90.22
48015;BME280;33780;51.034;7.120;2023-07-28T08:50:33;99999.25;;;19.79;90.11
48015;BME280;33780;51.034;7.120;2023-07-28T08:53:04;99993.19;;;19.84;89.94
48015;BME280;33780;51.034;7.120;2023-07-28T08:55:31;99994.22;;;19.89;90.23
48015;BME280;33780;51.034;7.120;2023-07-28T08:58:14;100003.00;;;19.91;90.15
48015;BME280;33780;51.034;7.120;2023-07-28T09:00:40;100001.56;;;19.96;90.08
48015;BME280;33780;51.034;7.120;2023-07-28T09:03:08;99996.53;;;19.99;90.09
48015;BME280;33780;51.034;7.120;2023-07-28T09:05:34;100003.63;;;20.07;90.03
48015;BME280;33780;51.034;7.120;2023-07-28T09:07:59;99992.34;;;20.16;89.76
48015;BME280;33780;51.034;7.120;2023-07-28T09:10:25;99991.47;;;20.29;89.77
48015;BME280;33780;51.034;7.120;2023-07-28T09:12:50;99993.50;;;20.40;89.50
48015;BME280;33780;51.034;7.120;2023-07-28T09:15:16;99989.13;;;20.52;89.62
48015;BME280;33780;51.034;7.120;2023-07-28T09:17:45;99980.09;;;20.65;89.62
48015;BME280;33780;51.034;7.120;2023-07-28T09:20:15;99989.44;;;20.76;89.55
48015;BME280;33780;51.034;7.120;2023-07-28T09:22:41;99981.06;;;20.84;89.06
48015;BME280;33780;51.034;7.120;2023-07-28T09:25:19;99984.56;;;20.91;88.73
48015;BME280;33780;51.034;7.120;2023-07-28T09:27:51;99979.91;;;20.98;88.96
48015;BME280;33780;51.034;7.120;2023-07-28T09:30:17;99980.34;;;21.02;88.82
48015;BME280;33780;51.034;7.120;2023-07-28T09:32:50;99984.28;;;21.06;88.66
48015;BME280;33780;51.034;7.120;2023-07-28T09:35:16;99988.47;;;21.08;88.66
48015;BME280;33780;51.034;7.120;2023-07-28T09:37:50;99987.41;;;21.09;88.04
48015;BME280;33780;51.034;7.120;2023-07-28T09:40:22;99988.47;;;21.08;87.93
48015;BME280;33780;51.034;7.120;2023-07-28T09:42:49;99985.72;;;21.08;88.12
48015;BME280;33780;51.034;7.120;2023-07-28T09:45:18;99980.50;;;21.07;88.05
48015;BME280;33780;51.034;7.120;2023-07-28T09:47:44;99982.63;;;21.05;87.78
48015;BME280;33780;51.034;7.120;2023-07-28T09:50:15;99979.91;;;21.05;87.66
48015;BME280;33780;51.034;7.120;2023-07-28T09:52:43;99986.19;;;21.05;87.90
48015;BME280;33780;51.034;7.120;2023-07-28T09:55:10;99986.19;;;21.05;87.44
48015;BME280;33780;51.034;7.120;2023-07-28T09:57:49;99986.78;;;21.07;87.80
48015;BME280;33780;51.034;7.120;2023-07-28T10:00:16;99984.91;;;21.08;87.80
48015;BME280;33780;51.034;7.120;2023-07-28T10:02:42;99984.06;;;21.07;87.32
48015;BME280;33780;51.034;7.120;2023-07-28T10:05:08;99981.34;;;21.07;87.20
48015;BME280;33780;51.034;7.120;2023-07-28T10:07:38;99994.94;;;21.07;87.32
48015;BME280;33780;51.034;7.120;2023-07-28T10:10:09;99994.13;;;21.07;87.19
48015;BME280;33780;51.034;7.120;2023-07-28T10:12:45;99994.13;;;21.07;87.62
48015;BME280;33780;51.034;7.120;2023-07-28T10:15:13;99994.34;;;21.05;87.18
48015;BME280;33780;51.034;7.120;2023-07-28T10:17:44;99996.00;;;21.06;87.33
48015;BME280;33780;51.034;7.120;2023-07-28T10:20:39;99995.56;;;21.09;87.28
48015;BME280;33780;51.034;7.120;2023-07-28T10:23:16;99999.50;;;21.13;87.37
48015;BME280;33780;51.034;7.120;2023-07-28T10:25:43;99991.31;;;21.20;87.30
48015;BME280;33780;51.034;7.120;2023-07-28T10:28:26;100000.09;;;21.29;87.11
48015;BME280;33780;51.034;7.120;2023-07-28T10:30:54;99990.63;;;21.38;87.50
48015;BME280;33780;51.034;7.120;2023-07-28T10:35:55;99996.56;;;21.53;87.50
48015;BME280;33780;51.034;7.120;2023-07-28T10:38:31;100008.69;;;21.57;86.71
48015;BME280;33780;51.034;7.120;2023-07-28T10:41:17;100001.13;;;21.59;86.96
48015;BME280;33780;51.034;7.120;2023-07-28T10:43:44;99991.91;;;21.60;87.38
48015;BME280;33780;51.034;7.120;2023-07-28T10:46:14;100006.97;;;21.63;86.83
48015;BME280;33780;51.034;7.120;2023-07-28T10:48:45;99999.84;;;21.62;88.06
48015;BME280;33780;51.034;7.120;2023-07-28T10:51:11;99998.41;;;21.59;87.81
48015;BME280;33780;51.034;7.120;2023-07-28T10:53:38;100001.59;;;21.56;87.86
48015;BME280;33780;51.034;7.120;2023-07-28T10:56:04;99995.09;;;21.57;87.75
48015;BME280;33780;51.034;7.120;2023-07-28T10:58:33;100001.13;;;21.59;87.54
48015;BME280;33780;51.034;7.120;2023-07-28T11:00:59;100003.63;;;21.61;87.43
48015;BME280;33780;51.034;7.120;2023-07-28T11:03:24;100004.47;;;21.61;87.26
48015;BME280;33780;51.034;7.120;2023-07-28T11:05:50;100011.97;;;21.66;87.29
48015;BME280;33780;51.034;7.120;2023-07-28T11:08:16;100016.09;;;21.75;87.31
48015;BME280;33780;51.034;7.120;2023-07-28T11:10:41;100011.88;;;21.79;86.24
48015;BME280;33780;51.034;7.120;2023-07-28T11:13:07;100018.53;;;21.83;85.59
48015;BME280;33780;51.034;7.120;2023-07-28T11:15:32;100018.31;;;21.85;85.09
48015;BME280;33780;51.034;7.120;2023-07-28T11:17:58;100015.34;;;21.86;85.99
48015;BME280;33780;51.034;7.120;2023-07-28T11:20:26;100017.22;;;21.92;85.04
48015;BME280;33780;51.034;7.120;2023-07-28T11:22:57;100010.03;;;21.98;85.25
48015;BME280;33780;51.034;7.120;2023-07-28T11:25:24;100008.94;;;22.06;85.48
48015;BME280;33780;51.034;7.120;2023-07-28T11:27:50;100002.19;;;22.08;84.82
48015;BME280;33780;51.034;7.120;2023-07-28T11:30:17;100009.50;;;22.14;84.54
48015;BME280;33780;51.034;7.120;2023-07-28T11:32:43;100005.03;;;22.20;84.57
48015;BME280;33780;51.034;7.120;2023-07-28T11:35:11;100007.91;;;22.25;84.17
48015;BME280;33780;51.034;7.120;2023-07-28T11:37:39;99997.41;;;22.28;84.19
48015;BME280;33780;51.034;7.120;2023-07-28T11:40:06;99998.84;;;22.31;83.15
48015;BME280;33780;51.034;7.120;2023-07-28T11:42:36;99993.75;;;22.35;83.12
48015;BME280;33780;51.034;7.120;2023-07-28T11:45:03;100000.41;;;22.39;82.06
48015;BME280;33780;51.034;7.120;2023-07-28T11:47:28;99995.34;;;22.42;81.43
48015;BME280;33780;51.034;7.120;2023-07-28T11:49:55;99995.97;;;22.44;82.20
48015;BME280;33780;51.034;7.120;2023-07-28T11:52:23;99990.66;;;22.49;82.88
48015;BME280;33780;51.034;7.120;2023-07-28T11:54:48;99986.19;;;22.55;82.31
48015;BME280;33780;51.034;7.120;2023-07-28T11:57:14;99990.28;;;22.64;82.17
48015;BME280;33780;51.034;7.120;2023-07-28T11:59:39;99991.88;;;22.72;81.58
48015;BME280;33780;51.034;7.120;2023-07-28T12:02:06;99993.44;;;22.79;81.96
48015;BME280;33780;51.034;7.120;2023-07-28T12:04:37;99981.66;;;22.85;81.73
48015;BME280;33780;51.034;7.120;2023-07-28T12:09:32;99982.53;;;22.98;81.53
48015;BME280;33780;51.034;7.120;2023-07-28T12:11:58;99974.84;;;23.06;81.33
48015;BME280;33780;51.034;7.120;2023-07-28T12:14:34;99978.72;;;23.17;81.37
48015;BME280;33780;51.034;7.120;2023-07-28T12:17:00;99979.66;;;23.23;81.40
48015;BME280;33780;51.034;7.120;2023-07-28T12:19:26;99976.47;;;23.26;80.80
48015;BME280;33780;51.034;7.120;2023-07-28T12:21:52;99977.53;;;23.25;80.43
48015;BME280;33780;51.034;7.120;2023-07-28T12:24:17;99985.34;;;23.21;79.66
48015;BME280;33780;51.034;7.120;2023-07-28T12:26:43;99979.97;;;23.14;79.87
48015;BME280;33780;51.034;7.120;2023-07-28T12:29:10;99975.47;;;23.08;79.51
48015;BME280;33780;51.034;7.120;2023-07-28T12:31:35;99979.94;;;23.03;79.25
48015;BME280;33780;51.034;7.120;2023-07-28T12:34:00;99980.41;;;23.00;79.70
48015;BME280;33780;51.034;7.120;2023-07-28T12:36:25;99970.41;;;22.94;79.86
48015;BME280;33780;51.034;7.120;2023-07-28T12:38:51;99978.47;;;22.88;80.02
48015;BME280;33780;51.034;7.120;2023-07-28T12:41:16;99975.59;;;22.83;80.14
48015;BME280;33780;51.034;7.120;2023-07-28T12:43:41;99978.75;;;22.80;81.24
48015;BME280;33780;51.034;7.120;2023-07-28T12:46:06;99984.66;;;22.77;81.52
48015;BME280;33780;51.034;7.120;2023-07-28T12:48:32;99992.00;;;22.77;81.37
48015;BME280;33780;51.034;7.120;2023-07-28T12:50:57;99983.59;;;22.78;81.87
48015;BME280;33780;51.034;7.120;2023-07-28T12:53:22;99980.03;;;22.78;81.42
48015;BME280;33780;51.034;7.120;2023-07-28T12:55:47;99985.72;;;22.76;81.23
48015;BME280;33780;51.034;7.120;2023-07-28T12:58:13;99980.25;;;22.76;80.95
48015;BME280;33780;51.034;7.120;2023-07-28T13:00:38;99986.19;;;22.73;79.63
48015;BME280;33780;51.034;7.120;2023-07-28T13:03:06;99978.59;;;22.75;79.62